sensor_id;sensor_type;location;lat;lon;timestamp;P1;durP1;ratioP1;P2;durP2;ratioP2
8435;SDS011;4255;48.730;9.156;2023-04-09T00:01:21;21.63;;;17.77;;
8435;SDS011;4255;48.730;9.156;2023-04-09T00:03:47;24.73;;;17.83;;
8435;SDS011;4255;48.730;9.156;2023-04-09T00:06:13;24.37;;;16.80;;
8435;SDS011;4255;48.730;9.156;2023-04-09T00:08:38;22.70;;;17.47;;
8435;SDS011;4255;48.730;9.156;2023-04-09T00:11:04;21.30;;;16.50;;
8435;SDS011;4255;48.730;9.156;2023-04-09T00:13:30;22.40;;;17.20;;
8435;SDS011;4255;48.730;9.156;2023-04-09T00:15:55;20.53;;;15.77;;
8435;SDS011;4255;48.730;9.156;2023-04-09T00:18:21;25.97;;;17.97;;
8435;SDS011;4255;48.730;9.156;2023-04-09T00:20:46;23.00;;;17.27;;
8435;SDS011;4255;48.730;9.156;2023-04-09T00:23:12;24.43;;;18.70;;
8435;SDS011;4255;48.730;9.156;2023-04-09T00:25:37;23.30;;;16.03;;
8435;SDS011;4255;48.730;9.156;2023-04-09T00:28:03;19.40;;;15.20;;
8435;SDS011;4255;48.730;9.156;2023-04-09T00:30:29;26.90;;;18.17;;
8435;SDS011;4255;48.730;9.156;2023-04-09T00:32:54;22.27;;;15.80;;
8435;SDS011;4255;48.730;9.156;2023-04-09T00:35:20;24.63;;;18.47;;
8435;SDS011;4255;48.730;9.156;2023-04-09T00:37:46;20.53;;;16.07;;
8435;SDS011;4255;48.730;9.156;2023-04-09T00:40:12;23.20;;;16.47;;
8435;SDS011;4255;48.730;9.156;2023-04-09T00:42:38;26.65;;;17.88;;
8435;SDS011;4255;48.730;9.156;2023-04-09T00:45:04;21.37;;;16.50;;
8435;SDS011;4255;48.730;9.156;2023-04-09T00:47:30;22.73;;;15.55;;
8435;SDS011;4255;48.730;9.156;2023-04-09T00:49:56;25.38;;;18.50;;
8435;SDS011;4255;48.730;9.156;2023-04-09T00:52:25;28.57;;;20.07;;
8435;SDS011;4255;48.730;9.156;2023-04-09T00:54:51;26.45;;;19.15;;
8435;SDS011;4255;48.730;9.156;2023-04-09T00:57:17;24.83;;;19.20;;
8435;SDS011;4255;48.730;9.156;2023-04-09T00:59:43;25.42;;;18.63;;
8435;SDS011;4255;48.730;9.156;2023-04-09T01:02:09;27.42;;;17.65;;
8435;SDS011;4255;48.730;9.156;2023-04-09T01:04:35;20.37;;;16.20;;
8435;SDS011;4255;48.730;9.156;2023-04-09T01:07:08;20.77;;;17.15;;
8435;SDS011;4255;48.730;9.156;2023-04-09T01:10:11;23.55;;;16.27;;
8435;SDS011;4255;48.730;9.156;2023-04-09T01:13:07;21.60;;;15.50;;
8435;SDS011;4255;48.730;9.156;2023-04-09T01:15:45;19.60;;;14.85;;
8435;SDS011;4255;48.730;9.156;2023-04-09T01:20:54;25.23;;;16.05;;
8435;SDS011;4255;48.730;9.156;2023-04-09T01:29:29;21.83;;;16.08;;
8435;SDS011;4255;48.730;9.156;2023-04-09T01:31:57;24.08;;;17.40;;
8435;SDS011;4255;48.730;9.156;2023-04-09T01:34:25;17.88;;;14.07;;
8435;SDS011;4255;48.730;9.156;2023-04-09T01:36:53;21.48;;;16.15;;
8435;SDS011;4255;48.730;9.156;2023-04-09T01:39:21;20.73;;;15.27;;
8435;SDS011;4255;48.730;9.156;2023-04-09T01:41:48;21.85;;;15.65;;
8435;SDS011;4255;48.730;9.156;2023-04-09T01:44:14;20.38;;;14.48;;
8435;SDS011;4255;48.730;9.156;2023-04-09T01:46:41;22.40;;;15.48;;
8435;SDS011;4255;48.730;9.156;2023-04-09T01:49:08;23.03;;;15.00;;
8435;SDS011;4255;48.730;9.156;2023-04-09T01:51:35;20.08;;;14.57;;
8435;SDS011;4255;48.730;9.156;2023-04-09T01:54:01;19.50;;;14.23;;
8435;SDS011;4255;48.730;9.156;2023-04-09T01:56:38;21.27;;;13.82;;
8435;SDS011;4255;48.730;9.156;2023-04-09T01:59:07;18.90;;;13.60;;
8435;SDS011;4255;48.730;9.156;2023-04-09T02:01:35;19.40;;;14.30;;
8435;SDS011;4255;48.730;9.156;2023-04-09T02:09:38;20.63;;;14.48;;
8435;SDS011;4255;48.730;9.156;2023-04-09T02:12:05;16.35;;;12.90;;
8435;SDS011;4255;48.730;9.156;2023-04-09T02:14:40;19.40;;;13.75;;
8435;SDS011;4255;48.730;9.156;2023-04-09T02:17:09;17.90;;;14.82;;
8435;SDS011;4255;48.730;9.156;2023-04-09T02:19:37;21.40;;;14.90;;
8435;SDS011;4255;48.730;9.156;2023-04-09T02:22:07;23.55;;;15.60;;
8435;SDS011;4255;48.730;9.156;2023-04-09T02:24:33;22.65;;;15.60;;
8435;SDS011;4255;48.730;9.156;2023-04-09T02:26:59;21.23;;;14.90;;
8435;SDS011;4255;48.730;9.156;2023-04-09T02:29:25;18.30;;;13.32;;
8435;SDS011;4255;48.730;9.156;2023-04-09T02:31:51;23.37;;;13.97;;
8435;SDS011;4255;48.730;9.156;2023-04-09T02:34:17;20.10;;;13.90;;
8435;SDS011;4255;48.730;9.156;2023-04-09T02:36:43;21.67;;;14.50;;
8435;SDS011;4255;48.730;9.156;2023-04-09T02:39:09;20.60;;;15.03;;
8435;SDS011;4255;48.730;9.156;2023-04-09T02:41:35;18.17;;;14.33;;
8435;SDS011;4255;48.730;9.156;2023-04-09T02:44:00;19.33;;;14.57;;
8435;SDS011;4255;48.730;9.156;2023-04-09T02:46:26;18.30;;;14.80;;
8435;SDS011;4255;48.730;9.156;2023-04-09T02:48:51;20.80;;;15.60;;
8435;SDS011;4255;48.730;9.156;2023-04-09T02:51:17;23.53;;;15.57;;
8435;SDS011;4255;48.730;9.156;2023-04-09T02:53:43;22.52;;;15.82;;
8435;SDS011;4255;48.730;9.156;2023-04-09T02:56:09;19.40;;;15.00;;
8435;SDS011;4255;48.730;9.156;2023-04-09T02:58:35;19.90;;;15.60;;
8435;SDS011;4255;48.730;9.156;2023-04-09T03:01:00;23.63;;;15.80;;
8435;SDS011;4255;48.730;9.156;2023-04-09T03:03:26;20.80;;;15.70;;
8435;SDS011;4255;48.730;9.156;2023-04-09T03:05:52;21.05;;;15.23;;
8435;SDS011;4255;48.730;9.156;2023-04-09T03:08:18;21.47;;;15.23;;
8435;SDS011;4255;48.730;9.156;2023-04-09T03:10:43;20.67;;;14.53;;
8435;SDS011;4255;48.730;9.156;2023-04-09T03:13:09;21.80;;;14.90;;
8435;SDS011;4255;48.730;9.156;2023-04-09T03:15:35;20.57;;;14.40;;
8435;SDS011;4255;48.730;9.156;2023-04-09T03:18:00;21.40;;;16.27;;
8435;SDS011;4255;48.730;9.156;2023-04-09T03:20:26;19.50;;;14.63;;
8435;SDS011;4255;48.730;9.156;2023-04-09T03:22:51;22.30;;;15.53;;
8435;SDS011;4255;48.730;9.156;2023-04-09T03:25:17;21.47;;;15.47;;
8435;SDS011;4255;48.730;9.156;2023-04-09T03:27:44;18.92;;;15.52;;
8435;SDS011;4255;48.730;9.156;2023-04-09T03:30:10;22.90;;;16.43;;
8435;SDS011;4255;48.730;9.156;2023-04-09T03:32:36;19.48;;;15.10;;
8435;SDS011;4255;48.730;9.156;2023-04-09T03:35:02;23.37;;;16.80;;
8435;SDS011;4255;48.730;9.156;2023-04-09T03:37:28;22.60;;;16.30;;
8435;SDS011;4255;48.730;9.156;2023-04-09T03:39:53;22.40;;;15.37;;
8435;SDS011;4255;48.730;9.156;2023-04-09T03:42:19;19.10;;;14.83;;
8435;SDS011;4255;48.730;9.156;2023-04-09T03:44:44;22.03;;;15.23;;
8435;SDS011;4255;48.730;9.156;2023-04-09T03:47:10;20.53;;;15.17;;
8435;SDS011;4255;48.730;9.156;2023-04-09T03:49:35;19.10;;;14.70;;
8435;SDS011;4255;48.730;9.156;2023-04-09T03:52:01;23.10;;;15.90;;
8435;SDS011;4255;48.730;9.156;2023-04-09T03:54:30;22.57;;;17.07;;
8435;SDS011;4255;48.730;9.156;2023-04-09T03:56:56;21.65;;;14.32;;
8435;SDS011;4255;48.730;9.156;2023-04-09T03:59:21;21.80;;;16.10;;
8435;SDS011;4255;48.730;9.156;2023-04-09T04:01:47;20.38;;;15.27;;
8435;SDS011;4255;48.730;9.156;2023-04-09T04:04:13;23.40;;;17.60;;
8435;SDS011;4255;48.730;9.156;2023-04-09T04:06:39;23.87;;;17.03;;
8435;SDS011;4255;48.730;9.156;2023-04-09T04:09:05;25.63;;;16.60;;
8435;SDS011;4255;48.730;9.156;2023-04-09T04:11:30;22.67;;;15.37;;
8435;SDS011;4255;48.730;9.156;2023-04-09T04:13:56;21.70;;;16.80;;
8435;SDS011;4255;48.730;9.156;2023-04-09T04:16:22;22.47;;;16.17;;
8435;SDS011;4255;48.730;9.156;2023-04-09T04:18:48;22.27;;;16.90;;
8435;SDS011;4255;48.730;9.156;2023-04-09T04:21:14;20.20;;;16.57;;
8435;SDS011;4255;48.730;9.156;2023-04-09T04:23:40;24.40;;;17.38;;
8435;SDS011;4255;48.730;9.156;2023-04-09T04:26:08;27.67;;;17.47;;
8435;SDS011;4255;48.730;9.156;2023-04-09T04:28:35;23.92;;;17.65;;
8435;SDS011;4255;48.730;9.156;2023-04-09T04:31:01;21.90;;;16.95;;
8435;SDS011;4255;48.730;9.156;2023-04-09T04:33:27;24.73;;;16.60;;
8435;SDS011;4255;48.730;9.156;2023-04-09T04:35:52;22.57;;;16.77;;
8435;SDS011;4255;48.730;9.156;2023-04-09T04:38:18;23.67;;;17.00;;
8435;SDS011;4255;48.730;9.156;2023-04-09T04:40:43;24.10;;;17.97;;
8435;SDS011;4255;48.730;9.156;2023-04-09T04:43:09;21.70;;;16.13;;
8435;SDS011;4255;48.730;9.156;2023-04-09T04:45:35;24.90;;;17.90;;
8435;SDS011;4255;48.730;9.156;2023-04-09T04:48:00;25.03;;;17.80;;
8435;SDS011;4255;48.730;9.156;2023-04-09T04:50:26;26.80;;;17.73;;
8435;SDS011;4255;48.730;9.156;2023-04-09T04:52:51;22.33;;;16.77;;
8435;SDS011;4255;48.730;9.156;2023-04-09T04:55:17;22.40;;;16.67;;
8435;SDS011;4255;48.730;9.156;2023-04-09T04:57:43;25.67;;;17.20;;
8435;SDS011;4255;48.730;9.156;2023-04-09T05:00:08;22.70;;;17.50;;
8435;SDS011;4255;48.730;9.156;2023-04-09T05:02:34;24.52;;;16.63;;
8435;SDS011;4255;48.730;9.156;2023-04-09T05:05:00;30.67;;;18.83;;
8435;SDS011;4255;48.730;9.156;2023-04-09T05:07:26;25.47;;;17.90;;
8435;SDS011;4255;48.730;9.156;2023-04-09T05:09:51;22.10;;;16.20;;
8435;SDS011;4255;48.730;9.156;2023-04-09T05:12:17;26.50;;;18.73;;
8435;SDS011;4255;48.730;9.156;2023-04-09T05:14:43;24.67;;;18.17;;
8435;SDS011;4255;48.730;9.156;2023-04-09T05:17:08;23.50;;;16.73;;
8435;SDS011;4255;48.730;9.156;2023-04-09T05:19:34;21.97;;;16.63;;
8435;SDS011;4255;48.730;9.156;2023-04-09T05:21:59;24.53;;;18.00;;
8435;SDS011;4255;48.730;9.156;2023-04-09T05:24:25;25.93;;;15.97;;
8435;SDS011;4255;48.730;9.156;2023-04-09T05:26:51;25.13;;;16.93;;
8435;SDS011;4255;48.730;9.156;2023-04-09T05:29:16;23.33;;;17.27;;
8435;SDS011;4255;48.730;9.156;2023-04-09T05:31:42;26.10;;;17.00;;
8435;SDS011;4255;48.730;9.156;2023-04-09T05:34:08;21.20;;;16.73;;
8435;SDS011;4255;48.730;9.156;2023-04-09T05:36:33;22.43;;;17.47;;
8435;SDS011;4255;48.730;9.156;2023-04-09T05:38:59;25.60;;;16.40;;
8435;SDS011;4255;48.730;9.156;2023-04-09T05:41:24;21.80;;;16.63;;
8435;SDS011;4255;48.730;9.156;2023-04-09T05:43:50;23.30;;;17.20;;
8435;SDS011;4255;48.730;9.156;2023-04-09T05:46:15;22.73;;;17.30;;
8435;SDS011;4255;48.730;9.156;2023-04-09T05:48:41;23.20;;;17.27;;
8435;SDS011;4255;48.730;9.156;2023-04-09T05:51:07;23.80;;;17.80;;
8435;SDS011;4255;48.730;9.156;2023-04-09T05:53:33;19.75;;;14.70;;
8435;SDS011;4255;48.730;9.156;2023-04-09T05:55:59;24.30;;;16.80;;
8435;SDS011;4255;48.730;9.156;2023-04-09T05:58:27;23.13;;;17.00;;
8435;SDS011;4255;48.730;9.156;2023-04-09T06:00:53;22.90;;;15.32;;
8435;SDS011;4255;48.730;9.156;2023-04-09T06:03:19;22.73;;;16.03;;
8435;SDS011;4255;48.730;9.156;2023-04-09T06:05:44;22.03;;;15.90;;
8435;SDS011;4255;48.730;9.156;2023-04-09T06:08:10;23.27;;;15.17;;
8435;SDS011;4255;48.730;9.156;2023-04-09T06:10:38;20.65;;;15.05;;
8435;SDS011;4255;48.730;9.156;2023-04-09T06:13:03;24.80;;;14.73;;
8435;SDS011;4255;48.730;9.156;2023-04-09T06:15:30;19.17;;;14.93;;
8435;SDS011;4255;48.730;9.156;2023-04-09T06:17:55;18.13;;;13.37;;
8435;SDS011;4255;48.730;9.156;2023-04-09T06:20:21;16.53;;;13.80;;
8435;SDS011;4255;48.730;9.156;2023-04-09T06:22:47;16.13;;;12.40;;
8435;SDS011;4255;48.730;9.156;2023-04-09T06:25:12;22.10;;;14.20;;
8435;SDS011;4255;48.730;9.156;2023-04-09T06:27:38;21.43;;;15.50;;
8435;SDS011;4255;48.730;9.156;2023-04-09T06:30:03;17.90;;;13.40;;
8435;SDS011;4255;48.730;9.156;2023-04-09T06:32:30;16.50;;;12.50;;
8435;SDS011;4255;48.730;9.156;2023-04-09T06:34:55;20.40;;;13.90;;
8435;SDS011;4255;48.730;9.156;2023-04-09T06:37:21;19.43;;;12.60;;
8435;SDS011;4255;48.730;9.156;2023-04-09T06:39:46;21.53;;;14.73;;
8435;SDS011;4255;48.730;9.156;2023-04-09T06:42:12;19.93;;;12.80;;
8435;SDS011;4255;48.730;9.156;2023-04-09T06:44:37;20.37;;;14.70;;
8435;SDS011;4255;48.730;9.156;2023-04-09T06:47:03;18.73;;;13.33;;
8435;SDS011;4255;48.730;9.156;2023-04-09T06:49:28;17.00;;;13.40;;
8435;SDS011;4255;48.730;9.156;2023-04-09T06:51:54;15.90;;;12.23;;
8435;SDS011;4255;48.730;9.156;2023-04-09T06:54:20;21.80;;;14.07;;
8435;SDS011;4255;48.730;9.156;2023-04-09T06:56:46;17.57;;;13.20;;
8435;SDS011;4255;48.730;9.156;2023-04-09T06:59:11;18.10;;;13.57;;
8435;SDS011;4255;48.730;9.156;2023-04-09T07:01:37;17.50;;;13.00;;
8435;SDS011;4255;48.730;9.156;2023-04-09T07:04:03;18.47;;;14.10;;
8435;SDS011;4255;48.730;9.156;2023-04-09T07:06:29;20.48;;;13.65;;
8435;SDS011;4255;48.730;9.156;2023-04-09T07:08:55;16.87;;;13.17;;
8435;SDS011;4255;48.730;9.156;2023-04-09T07:11:20;17.87;;;13.60;;
8435;SDS011;4255;48.730;9.156;2023-04-09T07:13:46;18.03;;;13.67;;
8435;SDS011;4255;48.730;9.156;2023-04-09T07:16:12;17.50;;;13.87;;
8435;SDS011;4255;48.730;9.156;2023-04-09T07:18:37;17.50;;;13.13;;
8435;SDS011;4255;48.730;9.156;2023-04-09T07:21:03;16.27;;;12.53;;
8435;SDS011;4255;48.730;9.156;2023-04-09T07:23:29;17.27;;;11.97;;
8435;SDS011;4255;48.730;9.156;2023-04-09T07:26:00;14.75;;;11.85;;
8435;SDS011;4255;48.730;9.156;2023-04-09T07:28:26;15.95;;;10.63;;
8435;SDS011;4255;48.730;9.156;2023-04-09T07:30:51;14.37;;;10.80;;
8435;SDS011;4255;48.730;9.156;2023-04-09T07:33:17;14.80;;;12.03;;
8435;SDS011;4255;48.730;9.156;2023-04-09T07:35:43;13.93;;;11.27;;
8435;SDS011;4255;48.730;9.156;2023-04-09T07:38:08;16.80;;;12.43;;
8435;SDS011;4255;48.730;9.156;2023-04-09T07:40:34;14.73;;;11.67;;
8435;SDS011;4255;48.730;9.156;2023-04-09T07:43:00;15.68;;;11.50;;
8435;SDS011;4255;48.730;9.156;2023-04-09T07:45:26;13.83;;;11.50;;
8435;SDS011;4255;48.730;9.156;2023-04-09T07:47:52;15.80;;;12.20;;
8435;SDS011;4255;48.730;9.156;2023-04-09T07:50:17;12.40;;;9.23;;
8435;SDS011;4255;48.730;9.156;2023-04-09T07:52:43;12.40;;;10.23;;
8435;SDS011;4255;48.730;9.156;2023-04-09T07:55:08;16.23;;;12.53;;
8435;SDS011;4255;48.730;9.156;2023-04-09T07:57:34;11.20;;;8.60;;
8435;SDS011;4255;48.730;9.156;2023-04-09T08:00:00;12.77;;;10.15;;
8435;SDS011;4255;48.730;9.156;2023-04-09T08:02:27;9.65;;;8.52;;
8435;SDS011;4255;48.730;9.156;2023-04-09T08:04:53;11.10;;;9.17;;
8435;SDS011;4255;48.730;9.156;2023-04-09T08:07:18;19.63;;;14.03;;
8435;SDS011;4255;48.730;9.156;2023-04-09T08:09:44;12.67;;;9.70;;
8435;SDS011;4255;48.730;9.156;2023-04-09T08:12:10;12.00;;;9.30;;
8435;SDS011;4255;48.730;9.156;2023-04-09T08:14:35;14.97;;;10.00;;
8435;SDS011;4255;48.730;9.156;2023-04-09T08:17:01;12.30;;;9.40;;
8435;SDS011;4255;48.730;9.156;2023-04-09T08:19:27;14.33;;;11.20;;
8435;SDS011;4255;48.730;9.156;2023-04-09T08:21:52;9.87;;;8.43;;
8435;SDS011;4255;48.730;9.156;2023-04-09T08:24:18;10.67;;;8.53;;
8435;SDS011;4255;48.730;9.156;2023-04-09T08:26:43;9.90;;;8.00;;
8435;SDS011;4255;48.730;9.156;2023-04-09T08:29:10;11.23;;;8.80;;
8435;SDS011;4255;48.730;9.156;2023-04-09T08:31:36;11.98;;;8.60;;
8435;SDS011;4255;48.730;9.156;2023-04-09T08:34:02;9.80;;;8.20;;
8435;SDS011;4255;48.730;9.156;2023-04-09T08:36:29;10.38;;;8.88;;
8435;SDS011;4255;48.730;9.156;2023-04-09T08:38:56;10.53;;;8.90;;
8435;SDS011;4255;48.730;9.156;2023-04-09T08:41:24;9.55;;;8.30;;
8435;SDS011;4255;48.730;9.156;2023-04-09T08:43:52;12.38;;;9.50;;
8435;SDS011;4255;48.730;9.156;2023-04-09T08:46:19;12.40;;;9.75;;
8435;SDS011;4255;48.730;9.156;2023-04-09T08:48:46;14.23;;;10.50;;
8435;SDS011;4255;48.730;9.156;2023-04-09T08:51:13;12.83;;;10.50;;
8435;SDS011;4255;48.730;9.156;2023-04-09T08:53:46;13.77;;;10.93;;
8435;SDS011;4255;48.730;9.156;2023-04-09T08:56:16;12.10;;;10.32;;
8435;SDS011;4255;48.730;9.156;2023-04-09T08:58:42;12.70;;;10.90;;
8435;SDS011;4255;48.730;9.156;2023-04-09T09:01:28;8.90;;;7.70;;
8435;SDS011;4255;48.730;9.156;2023-04-09T09:04:04;8.10;;;7.05;;
8435;SDS011;4255;48.730;9.156;2023-04-09T09:06:32;10.20;;;8.97;;
8435;SDS011;4255;48.730;9.156;2023-04-09T09:09:03;9.55;;;8.52;;
8435;SDS011;4255;48.730;9.156;2023-04-09T09:11:31;10.30;;;8.43;;
8435;SDS011;4255;48.730;9.156;2023-04-09T09:14:08;12.50;;;10.17;;
8435;SDS011;4255;48.730;9.156;2023-04-09T09:16:35;11.43;;;10.00;;
8435;SDS011;4255;48.730;9.156;2023-04-09T09:19:07;9.20;;;8.23;;
8435;SDS011;4255;48.730;9.156;2023-04-09T09:21:34;8.60;;;7.27;;
8435;SDS011;4255;48.730;9.156;2023-04-09T09:24:00;11.80;;;10.52;;
8435;SDS011;4255;48.730;9.156;2023-04-09T09:26:27;9.20;;;7.40;;
8435;SDS011;4255;48.730;9.156;2023-04-09T09:28:54;7.27;;;6.47;;
8435;SDS011;4255;48.730;9.156;2023-04-09T09:31:25;7.07;;;6.38;;
8435;SDS011;4255;48.730;9.156;2023-04-09T09:33:51;8.60;;;7.23;;
8435;SDS011;4255;48.730;9.156;2023-04-09T09:36:30;11.07;;;9.07;;
8435;SDS011;4255;48.730;9.156;2023-04-09T09:38:57;11.40;;;8.83;;
8435;SDS011;4255;48.730;9.156;2023-04-09T09:41:27;8.93;;;8.02;;
8435;SDS011;4255;48.730;9.156;2023-04-09T09:43:52;8.47;;;7.60;;
8435;SDS011;4255;48.730;9.156;2023-04-09T09:46:18;11.87;;;9.47;;
8435;SDS011;4255;48.730;9.156;2023-04-09T09:48:45;11.87;;;9.77;;
8435;SDS011;4255;48.730;9.156;2023-04-09T09:51:12;9.70;;;8.70;;
8435;SDS011;4255;48.730;9.156;2023-04-09T09:53:39;11.03;;;9.20;;
8435;SDS011;4255;48.730;9.156;2023-04-09T09:56:10;10.77;;;8.70;;
8435;SDS011;4255;48.730;9.156;2023-04-09T09:58:44;10.03;;;9.03;;
8435;SDS011;4255;48.730;9.156;2023-04-09T10:01:14;9.20;;;8.30;;
8435;SDS011;4255;48.730;9.156;2023-04-09T10:03:42;9.57;;;8.57;;
8435;SDS011;4255;48.730;9.156;2023-04-09T10:06:09;12.30;;;10.13;;
8435;SDS011;4255;48.730;9.156;2023-04-09T10:08:37;11.47;;;9.10;;
8435;SDS011;4255;48.730;9.156;2023-04-09T10:11:06;8.60;;;7.80;;
8435;SDS011;4255;48.730;9.156;2023-04-09T10:13:33;8.37;;;7.53;;
8435;SDS011;4255;48.730;9.156;2023-04-09T10:16:01;9.40;;;8.33;;
8435;SDS011;4255;48.730;9.156;2023-04-09T10:18:28;12.37;;;9.13;;
8435;SDS011;4255;48.730;9.156;2023-04-09T10:20:58;9.73;;;8.60;;
8435;SDS011;4255;48.730;9.156;2023-04-09T10:26:03;8.97;;;7.87;;
8435;SDS011;4255;48.730;9.156;2023-04-09T10:28:29;9.80;;;8.07;;
8435;SDS011;4255;48.730;9.156;2023-04-09T10:30:56;9.10;;;8.10;;
8435;SDS011;4255;48.730;9.156;2023-04-09T10:33:23;8.93;;;7.97;;
8435;SDS011;4255;48.730;9.156;2023-04-09T10:35:51;9.17;;;8.07;;
8435;SDS011;4255;48.730;9.156;2023-04-09T10:38:37;8.47;;;7.57;;
8435;SDS011;4255;48.730;9.156;2023-04-09T10:41:06;8.60;;;7.40;;
8435;SDS011;4255;48.730;9.156;2023-04-09T10:43:42;8.70;;;7.43;;
8435;SDS011;4255;48.730;9.156;2023-04-09T10:49:07;6.43;;;5.83;;
8435;SDS011;4255;48.730;9.156;2023-04-09T10:51:40;7.17;;;6.47;;
8435;SDS011;4255;48.730;9.156;2023-04-09T10:59:35;5.40;;;4.90;;
8435;SDS011;4255;48.730;9.156;2023-04-09T11:07:51;7.30;;;6.60;;
8435;SDS011;4255;48.730;9.156;2023-04-09T11:10:21;8.43;;;6.50;;
8435;SDS011;4255;48.730;9.156;2023-04-09T11:12:47;6.60;;;5.90;;
8435;SDS011;4255;48.730;9.156;2023-04-09T11:15:16;6.40;;;5.83;;
8435;SDS011;4255;48.730;9.156;2023-04-09T11:17:43;6.87;;;6.17;;
8435;SDS011;4255;48.730;9.156;2023-04-09T11:20:10;8.47;;;6.70;;
8435;SDS011;4255;48.730;9.156;2023-04-09T11:22:37;8.17;;;6.60;;
8435;SDS011;4255;48.730;9.156;2023-04-09T11:25:02;7.00;;;5.37;;
8435;SDS011;4255;48.730;9.156;2023-04-09T11:27:28;8.20;;;6.43;;
8435;SDS011;4255;48.730;9.156;2023-04-09T11:29:54;7.73;;;6.60;;
8435;SDS011;4255;48.730;9.156;2023-04-09T11:32:20;6.60;;;6.00;;
8435;SDS011;4255;48.730;9.156;2023-04-09T11:34:46;7.27;;;6.40;;
8435;SDS011;4255;48.730;9.156;2023-04-09T11:37:15;7.60;;;6.90;;
8435;SDS011;4255;48.730;9.156;2023-04-09T11:39:44;9.90;;;8.00;;
8435;SDS011;4255;48.730;9.156;2023-04-09T11:42:19;8.60;;;7.70;;
8435;SDS011;4255;48.730;9.156;2023-04-09T11:44:46;13.17;;;9.80;;
8435;SDS011;4255;48.730;9.156;2023-04-09T11:47:13;9.60;;;8.10;;
8435;SDS011;4255;48.730;9.156;2023-04-09T11:49:41;8.10;;;7.10;;
8435;SDS011;4255;48.730;9.156;2023-04-09T11:52:07;7.30;;;6.60;;
8435;SDS011;4255;48.730;9.156;2023-04-09T11:54:34;9.03;;;7.37;;
8435;SDS011;4255;48.730;9.156;2023-04-09T11:57:02;7.20;;;6.53;;
8435;SDS011;4255;48.730;9.156;2023-04-09T11:59:28;7.50;;;6.80;;
8435;SDS011;4255;48.730;9.156;2023-04-09T12:01:56;6.90;;;6.20;;
8435;SDS011;4255;48.730;9.156;2023-04-09T12:04:22;6.63;;;5.87;;
8435;SDS011;4255;48.730;9.156;2023-04-09T12:06:48;7.33;;;6.50;;
8435;SDS011;4255;48.730;9.156;2023-04-09T12:09:14;7.13;;;6.43;;
8435;SDS011;4255;48.730;9.156;2023-04-09T12:11:43;7.33;;;6.60;;
8435;SDS011;4255;48.730;9.156;2023-04-09T12:14:13;7.13;;;6.43;;
8435;SDS011;4255;48.730;9.156;2023-04-09T12:16:40;8.30;;;7.13;;
8435;SDS011;4255;48.730;9.156;2023-04-09T12:19:08;8.80;;;7.47;;
8435;SDS011;4255;48.730;9.156;2023-04-09T12:24:29;8.23;;;7.30;;
8435;SDS011;4255;48.730;9.156;2023-04-09T12:26:55;7.80;;;7.03;;
8435;SDS011;4255;48.730;9.156;2023-04-09T12:29:21;9.20;;;8.03;;
8435;SDS011;4255;48.730;9.156;2023-04-09T12:31:47;8.77;;;7.10;;
8435;SDS011;4255;48.730;9.156;2023-04-09T12:34:12;7.73;;;6.80;;
8435;SDS011;4255;48.730;9.156;2023-04-09T12:36:38;8.43;;;7.27;;
8435;SDS011;4255;48.730;9.156;2023-04-09T12:39:08;8.40;;;7.60;;
8435;SDS011;4255;48.730;9.156;2023-04-09T12:41:34;6.90;;;6.23;;
8435;SDS011;4255;48.730;9.156;2023-04-09T12:44:00;7.13;;;6.43;;
8435;SDS011;4255;48.730;9.156;2023-04-09T12:46:26;8.47;;;7.30;;
8435;SDS011;4255;48.730;9.156;2023-04-09T12:48:52;7.10;;;6.40;;
8435;SDS011;4255;48.730;9.156;2023-04-09T12:51:18;9.07;;;7.67;;
8435;SDS011;4255;48.730;9.156;2023-04-09T12:53:43;7.50;;;6.80;;
8435;SDS011;4255;48.730;9.156;2023-04-09T12:56:10;8.37;;;6.40;;
8435;SDS011;4255;48.730;9.156;2023-04-09T12:58:35;12.10;;;10.80;;
8435;SDS011;4255;48.730;9.156;2023-04-09T13:01:02;7.37;;;6.67;;
8435;SDS011;4255;48.730;9.156;2023-04-09T13:03:28;8.17;;;6.80;;
8435;SDS011;4255;48.730;9.156;2023-04-09T13:05:54;8.43;;;7.10;;
8435;SDS011;4255;48.730;9.156;2023-04-09T13:08:19;7.27;;;6.57;;
8435;SDS011;4255;48.730;9.156;2023-04-09T13:10:45;9.20;;;7.27;;
8435;SDS011;4255;48.730;9.156;2023-04-09T13:13:11;7.23;;;6.53;;
8435;SDS011;4255;48.730;9.156;2023-04-09T13:15:37;9.10;;;7.10;;
8435;SDS011;4255;48.730;9.156;2023-04-09T13:18:03;7.57;;;6.83;;
8435;SDS011;4255;48.730;9.156;2023-04-09T13:20:29;7.33;;;6.43;;
8435;SDS011;4255;48.730;9.156;2023-04-09T13:22:54;5.90;;;5.30;;
8435;SDS011;4255;48.730;9.156;2023-04-09T13:25:20;8.00;;;5.90;;
8435;SDS011;4255;48.730;9.156;2023-04-09T13:27:46;7.03;;;6.23;;
8435;SDS011;4255;48.730;9.156;2023-04-09T13:30:12;7.30;;;6.53;;
8435;SDS011;4255;48.730;9.156;2023-04-09T13:32:37;9.20;;;7.23;;
8435;SDS011;4255;48.730;9.156;2023-04-09T13:35:04;6.47;;;5.87;;
8435;SDS011;4255;48.730;9.156;2023-04-09T13:37:30;6.70;;;6.10;;
8435;SDS011;4255;48.730;9.156;2023-04-09T13:39:56;8.23;;;7.20;;
8435;SDS011;4255;48.730;9.156;2023-04-09T13:42:21;6.80;;;6.10;;
8435;SDS011;4255;48.730;9.156;2023-04-09T13:44:47;6.53;;;5.87;;
8435;SDS011;4255;48.730;9.156;2023-04-09T13:47:13;6.80;;;6.10;;
8435;SDS011;4255;48.730;9.156;2023-04-09T13:49:40;7.13;;;6.40;;
8435;SDS011;4255;48.730;9.156;2023-04-09T13:52:06;7.00;;;6.37;;
8435;SDS011;4255;48.730;9.156;2023-04-09T13:54:32;6.83;;;6.13;;
8435;SDS011;4255;48.730;9.156;2023-04-09T13:56:58;6.70;;;6.03;;
8435;SDS011;4255;48.730;9.156;2023-04-09T13:59:23;6.73;;;6.07;;
8435;SDS011;4255;48.730;9.156;2023-04-09T14:01:49;6.80;;;6.10;;
8435;SDS011;4255;48.730;9.156;2023-04-09T14:04:15;6.73;;;6.13;;
8435;SDS011;4255;48.730;9.156;2023-04-09T14:06:40;6.40;;;5.80;;
8435;SDS011;4255;48.730;9.156;2023-04-09T14:09:07;7.20;;;6.10;;
8435;SDS011;4255;48.730;9.156;2023-04-09T14:11:33;6.53;;;5.93;;
8435;SDS011;4255;48.730;9.156;2023-04-09T14:13:59;5.63;;;5.20;;
8435;SDS011;4255;48.730;9.156;2023-04-09T14:16:25;6.43;;;5.57;;
8435;SDS011;4255;48.730;9.156;2023-04-09T14:18:51;7.80;;;6.70;;
8435;SDS011;4255;48.730;9.156;2023-04-09T14:21:17;6.63;;;5.70;;
8435;SDS011;4255;48.730;9.156;2023-04-09T14:23:43;7.00;;;5.80;;
8435;SDS011;4255;48.730;9.156;2023-04-09T14:26:09;5.40;;;4.90;;
8435;SDS011;4255;48.730;9.156;2023-04-09T14:28:35;6.50;;;5.90;;
8435;SDS011;4255;48.730;9.156;2023-04-09T14:31:02;6.07;;;5.57;;
8435;SDS011;4255;48.730;9.156;2023-04-09T14:33:29;5.87;;;5.37;;
8435;SDS011;4255;48.730;9.156;2023-04-09T14:35:55;6.73;;;6.00;;
8435;SDS011;4255;48.730;9.156;2023-04-09T14:38:21;5.83;;;5.30;;
8435;SDS011;4255;48.730;9.156;2023-04-09T14:40:48;6.20;;;5.60;;
8435;SDS011;4255;48.730;9.156;2023-04-09T14:43:17;6.87;;;6.23;;
8435;SDS011;4255;48.730;9.156;2023-04-09T14:45:42;8.13;;;7.00;;
8435;SDS011;4255;48.730;9.156;2023-04-09T14:48:08;5.87;;;5.17;;
8435;SDS011;4255;48.730;9.156;2023-04-09T14:50:34;5.97;;;5.40;;
8435;SDS011;4255;48.730;9.156;2023-04-09T14:53:00;7.10;;;6.40;;
8435;SDS011;4255;48.730;9.156;2023-04-09T14:55:27;7.93;;;6.17;;
8435;SDS011;4255;48.730;9.156;2023-04-09T14:57:53;6.67;;;5.97;;
8435;SDS011;4255;48.730;9.156;2023-04-09T15:00:18;8.23;;;6.67;;
8435;SDS011;4255;48.730;9.156;2023-04-09T15:02:44;8.33;;;7.30;;
8435;SDS011;4255;48.730;9.156;2023-04-09T15:05:11;8.57;;;7.43;;
8435;SDS011;4255;48.730;9.156;2023-04-09T15:07:37;8.03;;;6.53;;
8435;SDS011;4255;48.730;9.156;2023-04-09T15:10:03;8.90;;;7.10;;
8435;SDS011;4255;48.730;9.156;2023-04-09T15:12:29;8.23;;;7.40;;
8435;SDS011;4255;48.730;9.156;2023-04-09T15:14:55;7.17;;;6.20;;
8435;SDS011;4255;48.730;9.156;2023-04-09T15:17:21;7.67;;;6.63;;
8435;SDS011;4255;48.730;9.156;2023-04-09T15:19:47;7.20;;;6.47;;
8435;SDS011;4255;48.730;9.156;2023-04-09T15:22:13;7.90;;;6.07;;
8435;SDS011;4255;48.730;9.156;2023-04-09T15:24:39;8.40;;;7.03;;
8435;SDS011;4255;48.730;9.156;2023-04-09T15:27:05;7.20;;;6.37;;
8435;SDS011;4255;48.730;9.156;2023-04-09T15:29:31;6.47;;;5.87;;
8435;SDS011;4255;48.730;9.156;2023-04-09T15:31:57;8.17;;;7.30;;